sensor_id;sensor_type;location;lat;lon;timestamp;temperature;humidity
81321;DHT22;70785;52.570;5.638;2024-03-23T00:51:39;6.50;74.60
81321;DHT22;70785;52.570;5.638;2024-03-23T00:54:05;6.50;74.60
81321;DHT22;70785;52.570;5.638;2024-03-23T00:56:31;6.60;74.50
81321;DHT22;70785;52.570;5.638;2024-03-23T00:58:57;6.50;74.60
81321;DHT22;70785;52.570;5.638;2024-03-23T01:01:23;6.50;74.70
81321;DHT22;70785;52.570;5.638;2024-03-23T01:03:49;6.50;74.70
81321;DHT22;70785;52.570;5.638;2024-03-23T01:06:15;6.50;74.70
81321;DHT22;70785;52.570;5.638;2024-03-23T01:08:42;6.50;75.00
81321;DHT22;70785;52.570;5.638;2024-03-23T01:11:08;6.60;75.00
81321;DHT22;70785;52.570;5.638;2024-03-23T01:13:34;6.60;75.00
81321;DHT22;70785;52.570;5.638;2024-03-23T01:16:00;6.70;75.00
81321;DHT22;70785;52.570;5.638;2024-03-23T01:18:26;6.70;75.00
81321;DHT22;70785;52.570;5.638;2024-03-23T01:20:52;6.70;75.10
81321;DHT22;70785;52.570;5.638;2024-03-23T01:23:18;6.70;75.00
81321;DHT22;70785;52.570;5.638;2024-03-23T01:25:51;6.60;75.10
81321;DHT22;70785;52.570;5.638;2024-03-23T01:28:18;6.60;75.20
81321;DHT22;70785;52.570;5.638;2024-03-23T01:30:44;6.60;75.30
81321;DHT22;70785;52.570;5.638;2024-03-23T01:33:10;6.60;75.30
81321;DHT22;70785;52.570;5.638;2024-03-23T01:35:36;6.70;75.20
81321;DHT22;70785;52.570;5.638;2024-03-23T01:38:02;6.70;75.10
81321;DHT22;70785;52.570;5.638;2024-03-23T01:40:29;6.70;74.90
81321;DHT22;70785;52.570;5.638;2024-03-23T01:43:03;6.60;74.70
81321;DHT22;70785;52.570;5.638;2024-03-23T01:45:30;6.60;74.70
81321;DHT22;70785;52.570;5.638;2024-03-23T01:47:56;6.60;74.70
81321;DHT22;70785;52.570;5.638;2024-03-23T01:50:22;6.50;74.60
81321;DHT22;70785;52.570;5.638;2024-03-23T01:52:50;6.50;74.50
81321;DHT22;70785;52.570;5.638;2024-03-23T01:55:16;6.40;74.50
81321;DHT22;70785;52.570;5.638;2024-03-23T01:57:42;6.40;74.40
81321;DHT22;70785;52.570;5.638;2024-03-23T02:00:09;6.40;74.30
81321;DHT22;70785;52.570;5.638;2024-03-23T02:02:46;6.40;74.10
81321;DHT22;70785;52.570;5.638;2024-03-23T02:05:13;6.40;73.90
81321;DHT22;70785;52.570;5.638;2024-03-23T02:07:40;6.30;73.80
81321;DHT22;70785;52.570;5.638;2024-03-23T02:10:07;6.40;73.60
81321;DHT22;70785;52.570;5.638;2024-03-23T02:12:34;6.30;73.60
81321;DHT22;70785;52.570;5.638;2024-03-23T02:15:00;6.30;73.50
81321;DHT22;70785;52.570;5.638;2024-03-23T02:17:29;6.30;73.50
81321;DHT22;70785;52.570;5.638;2024-03-23T02:19:56;6.30;73.40
81321;DHT22;70785;52.570;5.638;2024-03-23T02:22:22;6.30;73.30
81321;DHT22;70785;52.570;5.638;2024-03-23T02:24:48;6.20;73.40
81321;DHT22;70785;52.570;5.638;2024-03-23T02:27:14;6.20;73.40
81321;DHT22;70785;52.570;5.638;2024-03-23T02:29:40;6.30;73.20
81321;DHT22;70785;52.570;5.638;2024-03-23T02:32:06;6.30;73.20
81321;DHT22;70785;52.570;5.638;2024-03-23T02:34:35;6.30;73.20
81321;DHT22;70785;52.570;5.638;2024-03-23T02:37:01;6.30;73.10
81321;DHT22;70785;52.570;5.638;2024-03-23T02:39:28;6.30;73.00
81321;DHT22;70785;52.570;5.638;2024-03-23T02:41:54;6.30;72.70
81321;DHT22;70785;52.570;5.638;2024-03-23T02:44:20;6.40;72.30
81321;DHT22;70785;52.570;5.638;2024-03-23T02:46:46;6.30;72.20
81321;DHT22;70785;52.570;5.638;2024-03-23T02:49:13;6.40;72.00
81321;DHT22;70785;52.570;5.638;2024-03-23T02:51:39;6.40;71.80
81321;DHT22;70785;52.570;5.638;2024-03-23T02:54:06;6.40;71.50
81321;DHT22;70785;52.570;5.638;2024-03-23T02:56:33;6.40;71.40
81321;DHT22;70785;52.570;5.638;2024-03-23T02:58:59;6.40;71.20
81321;DHT22;70785;52.570;5.638;2024-03-23T03:01:25;6.40;71.20
81321;DHT22;70785;52.570;5.638;2024-03-23T03:03:51;6.30;71.30
81321;DHT22;70785;52.570;5.638;2024-03-23T03:06:25;6.30;71.30
81321;DHT22;70785;52.570;5.638;2024-03-23T03:08:51;6.20;71.40
81321;DHT22;70785;52.570;5.638;2024-03-23T03:11:17;6.30;71.30
81321;DHT22;70785;52.570;5.638;2024-03-23T03:13:43;6.30;71.20
81321;DHT22;70785;52.570;5.638;2024-03-23T03:16:12;6.20;71.20
81321;DHT22;70785;52.570;5.638;2024-03-23T03:18:39;6.20;71.30
81321;DHT22;70785;52.570;5.638;2024-03-23T03:21:06;6.10;71.30
81321;DHT22;70785;52.570;5.638;2024-03-23T03:23:39;6.00;71.50
81321;DHT22;70785;52.570;5.638;2024-03-23T03:26:06;6.00;71.50
81321;DHT22;70785;52.570;5.638;2024-03-23T03:28:32;6.00;71.50
81321;DHT22;70785;52.570;5.638;2024-03-23T03:31:01;6.00;71.50
81321;DHT22;70785;52.570;5.638;2024-03-23T03:33:28;6.00;71.30
81321;DHT22;70785;52.570;5.638;2024-03-23T03:35:54;6.00;71.20
81321;DHT22;70785;52.570;5.638;2024-03-23T03:38:21;6.00;71.20
81321;DHT22;70785;52.570;5.638;2024-03-23T03:40:47;6.10;71.20
81321;DHT22;70785;52.570;5.638;2024-03-23T03:43:13;6.00;71.10
81321;DHT22;70785;52.570;5.638;2024-03-23T03:45:40;6.00;71.20
81321;DHT22;70785;52.570;5.638;2024-03-23T03:48:06;6.00;71.20
81321;DHT22;70785;52.570;5.638;2024-03-23T03:50:33;6.00;71.20
81321;DHT22;70785;52.570;5.638;2024-03-23T03:52:59;6.00;71.20
81321;DHT22;70785;52.570;5.638;2024-03-23T03:55:25;6.00;71.10
81321;DHT22;70785;52.570;5.638;2024-03-23T03:57:51;6.00;71.00
81321;DHT22;70785;52.570;5.638;2024-03-23T04:00:17;6.00;70.80
81321;DHT22;70785;52.570;5.638;2024-03-23T04:02:43;6.00;70.70
81321;DHT22;70785;52.570;5.638;2024-03-23T04:05:09;6.00;70.70
81321;DHT22;70785;52.570;5.638;2024-03-23T04:07:35;6.00;70.70
81321;DHT22;70785;52.570;5.638;2024-03-23T04:10:02;6.00;70.60
81321;DHT22;70785;52.570;5.638;2024-03-23T04:12:31;5.90;70.70
81321;DHT22;70785;52.570;5.638;2024-03-23T04:14:57;6.00;70.60
81321;DHT22;70785;52.570;5.638;2024-03-23T04:17:23;6.00;70.50
81321;DHT22;70785;52.570;5.638;2024-03-23T04:19:51;6.00;70.50
81321;DHT22;70785;52.570;5.638;2024-03-23T04:22:18;5.90;70.70
81321;DHT22;70785;52.570;5.638;2024-03-23T04:24:44;5.90;70.70
81321;DHT22;70785;52.570;5.638;2024-03-23T04:27:10;5.90;70.70
81321;DHT22;70785;52.570;5.638;2024-03-23T04:29:36;5.80;70.80
81321;DHT22;70785;52.570;5.638;2024-03-23T04:32:02;5.80;70.80
81321;DHT22;70785;52.570;5.638;2024-03-23T04:34:29;5.80;70.80
81321;DHT22;70785;52.570;5.638;2024-03-23T04:36:55;5.80;70.90
81321;DHT22;70785;52.570;5.638;2024-03-23T04:39:21;5.80;70.90
81321;DHT22;70785;52.570;5.638;2024-03-23T04:41:47;5.80;70.90
81321;DHT22;70785;52.570;5.638;2024-03-23T04:44:13;5.80;71.00
81321;DHT22;70785;52.570;5.638;2024-03-23T04:46:39;5.90;70.90
81321;DHT22;70785;52.570;5.638;2024-03-23T04:49:06;6.00;70.80
81321;DHT22;70785;52.570;5.638;2024-03-23T04:51:36;6.00;70.70
81321;DHT22;70785;52.570;5.638;2024-03-23T04:54:05;6.00;70.80
81321;DHT22;70785;52.570;5.638;2024-03-23T04:56:31;5.90;70.80
81321;DHT22;70785;52.570;5.638;2024-03-23T04:58:59;5.90;70.90
81321;DHT22;70785;52.570;5.638;2024-03-23T05:01:27;5.90;71.00
81321;DHT22;70785;52.570;5.638;2024-03-23T05:03:54;6.00;71.10
81321;DHT22;70785;52.570;5.638;2024-03-23T05:06:20;6.00;71.00
81321;DHT22;70785;52.570;5.638;2024-03-23T05:08:46;6.00;71.00
81321;DHT22;70785;52.570;5.638;2024-03-23T05:11:12;6.00;71.00
81321;DHT22;70785;52.570;5.638;2024-03-23T05:13:38;6.10;70.90
81321;DHT22;70785;52.570;5.638;2024-03-23T05:16:04;6.20;70.80
81321;DHT22;70785;52.570;5.638;2024-03-23T05:18:30;6.20;70.70
81321;DHT22;70785;52.570;5.638;2024-03-23T05:20:58;6.20;70.60
81321;DHT22;70785;52.570;5.638;2024-03-23T05:23:25;6.20;70.60
81321;DHT22;70785;52.570;5.638;2024-03-23T05:25:51;6.20;70.70
81321;DHT22;70785;52.570;5.638;2024-03-23T05:28:18;6.20;70.70
81321;DHT22;70785;52.570;5.638;2024-03-23T05:30:53;6.30;70.80
81321;DHT22;70785;52.570;5.638;2024-03-23T05:33:20;6.30;70.80
81321;DHT22;70785;52.570;5.638;2024-03-23T05:35:47;6.30;70.80
81321;DHT22;70785;52.570;5.638;2024-03-23T05:38:13;6.30;71.00
81321;DHT22;70785;52.570;5.638;2024-03-23T05:40:40;6.30;71.10
81321;DHT22;70785;52.570;5.638;2024-03-23T05:43:06;6.30;71.10
81321;DHT22;70785;52.570;5.638;2024-03-23T05:45:33;6.30;71.10
81321;DHT22;70785;52.570;5.638;2024-03-23T05:47:59;6.30;71.10
81321;DHT22;70785;52.570;5.638;2024-03-23T05:50:25;6.30;71.10
81321;DHT22;70785;52.570;5.638;2024-03-23T05:52:51;6.20;71.10
81321;DHT22;70785;52.570;5.638;2024-03-23T05:55:17;6.20;71.20
81321;DHT22;70785;52.570;5.638;2024-03-23T05:57:44;6.30;71.10
81321;DHT22;70785;52.570;5.638;2024-03-23T06:00:10;6.40;71.00
81321;DHT22;70785;52.570;5.638;2024-03-23T06:02:44;6.40;70.70
81321;DHT22;70785;52.570;5.638;2024-03-23T06:05:11;6.50;70.60
81321;DHT22;70785;52.570;5.638;2024-03-23T06:07:38;6.50;70.50
81321;DHT22;70785;52.570;5.638;2024-03-23T06:10:06;6.60;70.50
81321;DHT22;70785;52.570;5.638;2024-03-23T06:12:33;6.70;70.20
81321;DHT22;70785;52.570;5.638;2024-03-23T06:14:59;6.70;70.00
81321;DHT22;70785;52.570;5.638;2024-03-23T06:17:25;6.80;69.90
81321;DHT22;70785;52.570;5.638;2024-03-23T06:19:51;6.90;69.80
81321;DHT22;70785;52.570;5.638;2024-03-23T06:22:17;6.90;69.90
81321;DHT22;70785;52.570;5.638;2024-03-23T06:24:44;6.90;69.90
81321;DHT22;70785;52.570;5.638;2024-03-23T06:27:10;7.00;69.50
81321;DHT22;70785;52.570;5.638;2024-03-23T06:29:36;7.00;69.40
81321;DHT22;70785;52.570;5.638;2024-03-23T06:32:02;7.00;69.40
81321;DHT22;70785;52.570;5.638;2024-03-23T06:34:29;7.00;69.50
81321;DHT22;70785;52.570;5.638;2024-03-23T06:36:56;7.00;69.40
81321;DHT22;70785;52.570;5.638;2024-03-23T06:39:22;7.00;69.40
81321;DHT22;70785;52.570;5.638;2024-03-23T06:41:52;7.00;69.60
81321;DHT22;70785;52.570;5.638;2024-03-23T06:44:19;7.00;69.40
81321;DHT22;70785;52.570;5.638;2024-03-23T06:46:45;7.00;69.00
81321;DHT22;70785;52.570;5.638;2024-03-23T06:49:12;6.90;68.30
81321;DHT22;70785;52.570;5.638;2024-03-23T06:51:38;6.90;68.20
81321;DHT22;70785;52.570;5.638;2024-03-23T06:54:05;6.80;68.10
81321;DHT22;70785;52.570;5.638;2024-03-23T06:56:31;6.70;68.10
81321;DHT22;70785;52.570;5.638;2024-03-23T06:58:58;6.60;68.10
81321;DHT22;70785;52.570;5.638;2024-03-23T07:01:25;6.50;68.20
81321;DHT22;70785;52.570;5.638;2024-03-23T07:03:51;6.40;68.20
81321;DHT22;70785;52.570;5.638;2024-03-23T07:06:17;6.30;68.10
81321;DHT22;70785;52.570;5.638;2024-03-23T07:08:43;6.20;68.20
81321;DHT22;70785;52.570;5.638;2024-03-23T07:11:09;6.20;68.40
81321;DHT22;70785;52.570;5.638;2024-03-23T07:13:35;6.30;68.50
81321;DHT22;70785;52.570;5.638;2024-03-23T07:16:01;6.50;68.50
81321;DHT22;70785;52.570;5.638;2024-03-23T07:18:27;6.60;68.40
81321;DHT22;70785;52.570;5.638;2024-03-23T07:20:58;6.70;68.30
81321;DHT22;70785;52.570;5.638;2024-03-23T07:23:24;6.80;68.20
81321;DHT22;70785;52.570;5.638;2024-03-23T07:26:04;6.50;66.70
81321;DHT22;70785;52.570;5.638;2024-03-23T07:28:34;5.90;67.00
81321;DHT22;70785;52.570;5.638;2024-03-23T07:31:09;5.50;68.00
81321;DHT22;70785;52.570;5.638;2024-03-23T07:33:46;5.10;69.50
81321;DHT22;70785;52.570;5.638;2024-03-23T07:36:13;4.90;70.80
81321;DHT22;70785;52.570;5.638;2024-03-23T07:38:43;4.90;72.10
81321;DHT22;70785;52.570;5.638;2024-03-23T07:41:20;4.90;72.70
81321;DHT22;70785;52.570;5.638;2024-03-23T07:43:47;4.90;72.80
81321;DHT22;70785;52.570;5.638;2024-03-23T07:46:15;5.00;72.80
81321;DHT22;70785;52.570;5.638;2024-03-23T07:48:41;5.00;72.90
81321;DHT22;70785;52.570;5.638;2024-03-23T07:51:10;5.10;72.90
81321;DHT22;70785;52.570;5.638;2024-03-23T07:53:37;5.20;72.90
81321;DHT22;70785;52.570;5.638;2024-03-23T07:56:05;5.30;72.70
81321;DHT22;70785;52.570;5.638;2024-03-23T07:58:32;5.50;72.50
81321;DHT22;70785;52.570;5.638;2024-03-23T08:01:11;5.60;72.20
81321;DHT22;70785;52.570;5.638;2024-03-23T08:03:38;5.70;71.80
81321;DHT22;70785;52.570;5.638;2024-03-23T08:06:14;5.70;71.40
81321;DHT22;70785;52.570;5.638;2024-03-23T08:08:41;5.70;71.50
81321;DHT22;70785;52.570;5.638;2024-03-23T08:11:08;5.70;71.50
81321;DHT22;70785;52.570;5.638;2024-03-23T08:13:35;5.70;71.50
81321;DHT22;70785;52.570;5.638;2024-03-23T08:16:02;5.70;71.50
81321;DHT22;70785;52.570;5.638;2024-03-23T08:18:29;5.80;71.20
81321;DHT22;70785;52.570;5.638;2024-03-23T08:21:05;5.90;71.00
81321;DHT22;70785;52.570;5.638;2024-03-23T08:23:34;5.90;71.00
81321;DHT22;70785;52.570;5.638;2024-03-23T08:26:06;5.90;70.70
81321;DHT22;70785;52.570;5.638;2024-03-23T08:28:33;6.00;70.20
81321;DHT22;70785;52.570;5.638;2024-03-23T08:31:06;6.20;69.80
81321;DHT22;70785;52.570;5.638;2024-03-23T08:33:32;6.40;69.60
81321;DHT22;70785;52.570;5.638;2024-03-23T08:35:59;6.70;69.30
81321;DHT22;70785;52.570;5.638;2024-03-23T08:38:27;6.80;69.30
81321;DHT22;70785;52.570;5.638;2024-03-23T08:40:57;7.00;69.30
81321;DHT22;70785;52.570;5.638;2024-03-23T08:43:24;7.10;69.30
81321;DHT22;70785;52.570;5.638;2024-03-23T08:45:50;7.20;69.20
81321;DHT22;70785;52.570;5.638;2024-03-23T08:48:19;7.10;69.30
81321;DHT22;70785;52.570;5.638;2024-03-23T08:50:47;7.10;69.30
81321;DHT22;70785;52.570;5.638;2024-03-23T08:53:14;7.00;69.10
81321;DHT22;70785;52.570;5.638;2024-03-23T08:55:40;7.00;69.00
81321;DHT22;70785;52.570;5.638;2024-03-23T08:58:06;7.00;68.40
81321;DHT22;70785;52.570;5.638;2024-03-23T09:00:34;6.80;68.10
81321;DHT22;70785;52.570;5.638;2024-03-23T09:03:00;6.70;68.30
81321;DHT22;70785;52.570;5.638;2024-03-23T09:05:28;6.60;68.10
81321;DHT22;70785;52.570;5.638;2024-03-23T09:07:56;6.60;67.90
81321;DHT22;70785;52.570;5.638;2024-03-23T09:10:22;6.80;67.80
81321;DHT22;70785;52.570;5.638;2024-03-23T09:12:48;7.00;67.40
81321;DHT22;70785;52.570;5.638;2024-03-23T09:15:15;7.10;66.70
81321;DHT22;70785;52.570;5.638;2024-03-23T09:17:41;7.20;66.00
81321;DHT22;70785;52.570;5.638;2024-03-23T09:20:07;7.20;65.80
81321;DHT22;70785;52.570;5.638;2024-03-23T09:22:34;7.40;65.10
81321;DHT22;70785;52.570;5.638;2024-03-23T09:25:00;7.60;64.90
81321;DHT22;70785;52.570;5.638;2024-03-23T09:27:27;7.80;64.00
81321;DHT22;70785;52.570;5.638;2024-03-23T09:29:53;8.00;64.00
81321;DHT22;70785;52.570;5.638;2024-03-23T09:32:19;8.00;63.90
81321;DHT22;70785;52.570;5.638;2024-03-23T09:34:45;7.80;64.20
81321;DHT22;70785;52.570;5.638;2024-03-23T09:37:11;7.70;64.30
81321;DHT22;70785;52.570;5.638;2024-03-23T09:39:37;7.60;64.30
81321;DHT22;70785;52.570;5.638;2024-03-23T09:42:04;7.60;63.70
81321;DHT22;70785;52.570;5.638;2024-03-23T09:44:30;7.60;63.40
81321;DHT22;70785;52.570;5.638;2024-03-23T09:46:56;7.80;62.90
81321;DHT22;70785;52.570;5.638;2024-03-23T09:49:22;7.80;62.10
81321;DHT22;70785;52.570;5.638;2024-03-23T09:51:49;7.70;62.20
81321;DHT22;70785;52.570;5.638;2024-03-23T09:54:15;7.60;62.50
81321;DHT22;70785;52.570;5.638;2024-03-23T09:56:41;7.70;62.50
81321;DHT22;70785;52.570;5.638;2024-03-23T09:59:07;7.70;62.20
81321;DHT22;70785;52.570;5.638;2024-03-23T10:01:33;7.80;62.40
81321;DHT22;70785;52.570;5.638;2024-03-23T10:04:00;7.80;62.90
81321;DHT22;70785;52.570;5.638;2024-03-23T10:06:26;8.00;62.60
81321;DHT22;70785;52.570;5.638;2024-03-23T10:08:52;8.10;62.40
81321;DHT22;70785;52.570;5.638;2024-03-23T10:11:20;8.10;62.00
81321;DHT22;70785;52.570;5.638;2024-03-23T10:13:47;8.20;62.10
81321;DHT22;70785;52.570;5.638;2024-03-23T10:16:24;8.20;61.60
81321;DHT22;70785;52.570;5.638;2024-03-23T10:18:50;8.10;62.30
81321;DHT22;70785;52.570;5.638;2024-03-23T10:21:16;8.10;62.50
81321;DHT22;70785;52.570;5.638;2024-03-23T10:23:44;8.00;62.00
81321;DHT22;70785;52.570;5.638;2024-03-23T10:26:24;8.00;62.20
81321;DHT22;70785;52.570;5.638;2024-03-23T10:31:32;8.50;61.80
81321;DHT22;70785;52.570;5.638;2024-03-23T10:33:58;8.60;61.40
81321;DHT22;70785;52.570;5.638;2024-03-23T10:36:26;8.80;61.40
81321;DHT22;70785;52.570;5.638;2024-03-23T10:38:54;9.00;61.30
81321;DHT22;70785;52.570;5.638;2024-03-23T10:41:20;9.00;61.10
81321;DHT22;70785;52.570;5.638;2024-03-23T10:43:48;9.00;61.20
81321;DHT22;70785;52.570;5.638;2024-03-23T10:46:14;9.20;61.20
81321;DHT22;70785;52.570;5.638;2024-03-23T10:48:41;9.10;60.30
81321;DHT22;70785;52.570;5.638;2024-03-23T10:51:10;9.00;60.60
81321;DHT22;70785;52.570;5.638;2024-03-23T10:53:36;9.00;61.00
81321;DHT22;70785;52.570;5.638;2024-03-23T10:56:04;9.20;60.80
81321;DHT22;70785;52.570;5.638;2024-03-23T10:58:36;9.40;59.90
81321;DHT22;70785;52.570;5.638;2024-03-23T11:01:03;9.40;59.70
81321;DHT22;70785;52.570;5.638;2024-03-23T11:03:33;9.40;59.30
81321;DHT22;70785;52.570;5.638;2024-03-23T11:06:00;9.10;58.20
81321;DHT22;70785;52.570;5.638;2024-03-23T11:11:19;9.00;58.60
81321;DHT22;70785;52.570;5.638;2024-03-23T11:13:50;8.90;59.30
81321;DHT22;70785;52.570;5.638;2024-03-23T11:16:24;8.90;59.30
81321;DHT22;70785;52.570;5.638;2024-03-23T11:18:51;8.70;60.30
81321;DHT22;70785;52.570;5.638;2024-03-23T11:21:51;8.40;61.10
81321;DHT22;70785;52.570;5.638;2024-03-23T11:24:18;8.30;61.80
81321;DHT22;70785;52.570;5.638;2024-03-23T11:26:45;8.30;62.10
81321;DHT22;70785;52.570;5.638;2024-03-23T11:29:13;8.20;62.30
81321;DHT22;70785;52.570;5.638;2024-03-23T11:31:49;8.20;63.00
81321;DHT22;70785;52.570;5.638;2024-03-23T11:34:16;8.20;63.90
81321;DHT22;70785;52.570;5.638;2024-03-23T11:36:43;8.10;64.50
81321;DHT22;70785;52.570;5.638;2024-03-23T11:39:16;8.10;65.00
81321;DHT22;70785;52.570;5.638;2024-03-23T11:41:53;8.10;64.80
81321;DHT22;70785;52.570;5.638;2024-03-23T11:44:25;8.00;64.50
81321;DHT22;70785;52.570;5.638;2024-03-23T11:46:52;7.80;63.70
81321;DHT22;70785;52.570;5.638;2024-03-23T11:49:24;7.60;63.20
81321;DHT22;70785;52.570;5.638;2024-03-23T11:51:52;7.40;62.60
81321;DHT22;70785;52.570;5.638;2024-03-23T11:54:24;7.40;63.40
81321;DHT22;70785;52.570;5.638;2024-03-23T11:57:04;7.50;64.00
81321;DHT22;70785;52.570;5.638;2024-03-23T11:59:38;7.80;64.30
81321;DHT22;70785;52.570;5.638;2024-03-23T12:04:33;8.00;63.70
81321;DHT22;70785;52.570;5.638;2024-03-23T12:07:19;8.00;63.30
81321;DHT22;70785;52.570;5.638;2024-03-23T12:09:47;8.00;63.10
81321;DHT22;70785;52.570;5.638;2024-03-23T12:12:27;7.90;63.00
81321;DHT22;70785;52.570;5.638;2024-03-23T12:15:03;7.90;63.30
81321;DHT22;70785;52.570;5.638;2024-03-23T12:17:29;8.20;63.40
81321;DHT22;70785;52.570;5.638;2024-03-23T12:19:55;8.50;62.60
81321;DHT22;70785;52.570;5.638;2024-03-23T12:22:22;8.80;62.80
81321;DHT22;70785;52.570;5.638;2024-03-23T12:24:49;8.90;62.20
81321;DHT22;70785;52.570;5.638;2024-03-23T12:27:15;9.00;62.20
81321;DHT22;70785;52.570;5.638;2024-03-23T12:29:41;9.20;61.10
81321;DHT22;70785;52.570;5.638;2024-03-23T12:32:09;9.20;60.00
81321;DHT22;70785;52.570;5.638;2024-03-23T12:34:35;9.40;60.00
81321;DHT22;70785;52.570;5.638;2024-03-23T12:37:01;9.20;59.70
81321;DHT22;70785;52.570;5.638;2024-03-23T12:39:27;9.00;58.70
81321;DHT22;70785;52.570;5.638;2024-03-23T12:41:53;8.90;59.40
81321;DHT22;70785;52.570;5.638;2024-03-23T12:44:19;9.00;59.50
81321;DHT22;70785;52.570;5.638;2024-03-23T12:46:45;9.00;60.00
81321;DHT22;70785;52.570;5.638;2024-03-23T12:49:12;8.80;60.50
81321;DHT22;70785;52.570;5.638;2024-03-23T12:51:38;8.60;61.10
81321;DHT22;70785;52.570;5.638;2024-03-23T12:54:04;8.20;61.70
81321;DHT22;70785;52.570;5.638;2024-03-23T12:56:31;7.80;62.80
81321;DHT22;70785;52.570;5.638;2024-03-23T12:58:57;7.60;63.70
81321;DHT22;70785;52.570;5.638;2024-03-23T13:01:23;7.50;63.90
81321;DHT22;70785;52.570;5.638;2024-03-23T13:03:50;7.40;63.90
81321;DHT22;70785;52.570;5.638;2024-03-23T13:06:19;7.20;63.80
81321;DHT22;70785;52.570;5.638;2024-03-23T13:08:45;7.00;64.20
81321;DHT22;70785;52.570;5.638;2024-03-23T13:11:12;7.00;64.10
81321;DHT22;70785;52.570;5.638;2024-03-23T13:13:40;7.10;64.50
81321;DHT22;70785;52.570;5.638;2024-03-23T13:16:08;7.30;64.20
81321;DHT22;70785;52.570;5.638;2024-03-23T13:18:34;7.60;64.10
81321;DHT22;70785;52.570;5.638;2024-03-23T13:21:00;8.00;63.70
81321;DHT22;70785;52.570;5.638;2024-03-23T13:23:26;8.20;62.80
81321;DHT22;70785;52.570;5.638;2024-03-23T13:25:54;8.30;63.10
81321;DHT22;70785;52.570;5.638;2024-03-23T13:28:20;8.40;63.00
81321;DHT22;70785;52.570;5.638;2024-03-23T13:30:51;8.30;63.00
81321;DHT22;70785;52.570;5.638;2024-03-23T13:33:17;8.10;62.80
81321;DHT22;70785;52.570;5.638;2024-03-23T13:35:53;8.00;62.80
81321;DHT22;70785;52.570;5.638;2024-03-23T13:38:20;7.80;63.10
81321;DHT22;70785;52.570;5.638;2024-03-23T13:40:53;7.80;63.00
81321;DHT22;70785;52.570;5.638;2024-03-23T13:43:20;7.60;63.00
81321;DHT22;70785;52.570;5.638;2024-03-23T13:45:47;7.50;63.20
81321;DHT22;70785;52.570;5.638;2024-03-23T13:48:15;7.60;63.80
81321;DHT22;70785;52.570;5.638;2024-03-23T13:50:41;7.70;64.10
81321;DHT22;70785;52.570;5.638;2024-03-23T13:53:07;7.80;64.20
81321;DHT22;70785;52.570;5.638;2024-03-23T13:55:34;8.00;63.90
81321;DHT22;70785;52.570;5.638;2024-03-23T13:58:01;8.20;63.20
81321;DHT22;70785;52.570;5.638;2024-03-23T14:00:27;8.20;62.10
81321;DHT22;70785;52.570;5.638;2024-03-23T14:02:54;8.10;62.00
81321;DHT22;70785;52.570;5.638;2024-03-23T14:05:20;8.10;61.90
81321;DHT22;70785;52.570;5.638;2024-03-23T14:07:46;8.20;61.80
81321;DHT22;70785;52.570;5.638;2024-03-23T14:10:12;8.20;61.30
81321;DHT22;70785;52.570;5.638;2024-03-23T14:12:39;8.10;61.60
81321;DHT22;70785;52.570;5.638;2024-03-23T14:15:06;8.00;62.60
81321;DHT22;70785;52.570;5.638;2024-03-23T14:17:32;7.80;62.70
81321;DHT22;70785;52.570;5.638;2024-03-23T14:19:59;7.70;62.80
81321;DHT22;70785;52.570;5.638;2024-03-23T14:22:27;7.60;63.20
81321;DHT22;70785;52.570;5.638;2024-03-23T14:24:53;7.60;63.80
81321;DHT22;70785;52.570;5.638;2024-03-23T14:27:20;8.10;63.50
81321;DHT22;70785;52.570;5.638;2024-03-23T14:29:47;8.60;62.50
81321;DHT22;70785;52.570;5.638;2024-03-23T14:32:14;9.30;62.50
81321;DHT22;70785;52.570;5.638;2024-03-23T14:34:41;9.90;60.40
81321;DHT22;70785;52.570;5.638;2024-03-23T14:37:07;10.30;60.70
81321;DHT22;70785;52.570;5.638;2024-03-23T14:39:34;10.80;59.70
81321;DHT22;70785;52.570;5.638;2024-03-23T14:42:05;11.20;59.20
81321;DHT22;70785;52.570;5.638;2024-03-23T14:44:34;11.30;56.70
81321;DHT22;70785;52.570;5.638;2024-03-23T14:47:00;10.90;56.40
81321;DHT22;70785;52.570;5.638;2024-03-23T14:49:26;10.50;56.20
81321;DHT22;70785;52.570;5.638;2024-03-23T14:51:52;10.00;55.30
81321;DHT22;70785;52.570;5.638;2024-03-23T14:54:18;9.40;56.60
81321;DHT22;70785;52.570;5.638;2024-03-23T14:56:44;8.90;57.30
81321;DHT22;70785;52.570;5.638;2024-03-23T14:59:13;8.40;57.40
81321;DHT22;70785;52.570;5.638;2024-03-23T15:01:39;8.00;58.30
81321;DHT22;70785;52.570;5.638;2024-03-23T15:04:05;7.80;60.00
81321;DHT22;70785;52.570;5.638;2024-03-23T15:06:31;8.00;60.20
81321;DHT22;70785;52.570;5.638;2024-03-23T15:08:59;8.30;59.20
81321;DHT22;70785;52.570;5.638;2024-03-23T15:11:25;8.20;58.70
81321;DHT22;70785;52.570;5.638;2024-03-23T15:13:51;8.10;58.70
81321;DHT22;70785;52.570;5.638;2024-03-23T15:16:17;8.00;59.30
81321;DHT22;70785;52.570;5.638;2024-03-23T15:18:46;7.80;60.00
81321;DHT22;70785;52.570;5.638;2024-03-23T15:21:12;7.80;60.60
81321;DHT22;70785;52.570;5.638;2024-03-23T15:23:40;7.80;61.00
81321;DHT22;70785;52.570;5.638;2024-03-23T15:26:09;8.00;61.90
81321;DHT22;70785;52.570;5.638;2024-03-23T15:28:36;8.40;62.70
81321;DHT22;70785;52.570;5.638;2024-03-23T15:31:20;9.00;62.60
81321;DHT22;70785;52.570;5.638;2024-03-23T15:33:47;9.60;59.10
81321;DHT22;70785;52.570;5.638;2024-03-23T15:36:13;9.90;57.70
81321;DHT22;70785;52.570;5.638;2024-03-23T15:38:39;10.10;57.80
81321;DHT22;70785;52.570;5.638;2024-03-23T15:41:05;10.50;57.60
81321;DHT22;70785;52.570;5.638;2024-03-23T15:43:31;11.00;58.30
81321;DHT22;70785;52.570;5.638;2024-03-23T15:45:59;11.10;57.70
81321;DHT22;70785;52.570;5.638;2024-03-23T15:48:28;11.10;56.50
81321;DHT22;70785;52.570;5.638;2024-03-23T15:51:00;10.80;56.10
81321;DHT22;70785;52.570;5.638;2024-03-23T15:53:27;10.50;55.90
81321;DHT22;70785;52.570;5.638;2024-03-23T15:55:54;10.40;56.20
81321;DHT22;70785;52.570;5.638;2024-03-23T15:58:21;10.30;56.20
81321;DHT22;70785;52.570;5.638;2024-03-23T16:03:21;10.10;56.40
81321;DHT22;70785;52.570;5.638;2024-03-23T16:05:54;9.90;56.60
81321;DHT22;70785;52.570;5.638;2024-03-23T16:08:21;9.70;56.90
81321;DHT22;70785;52.570;5.638;2024-03-23T16:10:47;9.50;57.10
81321;DHT22;70785;52.570;5.638;2024-03-23T16:13:14;9.20;57.00
81321;DHT22;70785;52.570;5.638;2024-03-23T16:15:40;9.00;56.80
81321;DHT22;70785;52.570;5.638;2024-03-23T16:18:06;8.90;57.20
81321;DHT22;70785;52.570;5.638;2024-03-23T16:20:32;8.90;57.30
81321;DHT22;70785;52.570;5.638;2024-03-23T16:23:00;8.90;57.20
81321;DHT22;70785;52.570;5.638;2024-03-23T16:25:26;8.80;56.80
81321;DHT22;70785;52.570;5.638;2024-03-23T16:27:53;8.60;57.90
81321;DHT22;70785;52.570;5.638;2024-03-23T16:30:19;8.30;59.00
81321;DHT22;70785;52.570;5.638;2024-03-23T16:32:49;8.30;60.30
81321;DHT22;70785;52.570;5.638;2024-03-23T16:35:15;8.30;61.60
81321;DHT22;70785;52.570;5.638;2024-03-23T16:37:41;8.30;61.50
81321;DHT22;70785;52.570;5.638;2024-03-23T16:40:08;8.30;61.20
81321;DHT22;70785;52.570;5.638;2024-03-23T16:42:37;8.30;61.00
81321;DHT22;70785;52.570;5.638;2024-03-23T16:45:04;8.20;60.90
81321;DHT22;70785;52.570;5.638;2024-03-23T16:47:30;8.30;60.60